EGXZ

Details ICAO EGXZ
Name RAF Topcliffe
Region United Kingdom
Timezone Europe/London (UTC+0.0)
Plans Departing 2
Arriving 0
Stats Elevation 92 ft / 28 m (AMSL)
Location 54.205672° -1.381410°
Runways 2
Magnetic Variation 1.240° W
Sunrise 2017-12-11 08:17:01 UTC / 2017-12-11 08:17:01 Local
Sunset 2017-12-11 15:43:28 UTC / 2017-12-11 15:43:28 Local
Advertisement - Login to hide

Runways

ID Width Length Bearing (true) Bearing (mag) Surface Threshold Offset Overrun Length
03 151 ft / 46 m 6,089 ft / 1,856 m 21.78° 23.02° Asphalt 1,247 ft / 380 m 0 ft / 0 m
13 151 ft / 46 m 4,122 ft / 1,256 m 125.85° 127.09° Asphalt 0 ft / 0 m 0 ft / 0 m
21 151 ft / 46 m 6,089 ft / 1,856 m 201.79° 203.03° Asphalt 0 ft / 0 m 0 ft / 0 m
31 151 ft / 46 m 4,122 ft / 1,256 m 305.86° 307.10° Asphalt 1,037 ft / 316 m 0 ft / 0 m

Map

Weather


0- 5 10 15 20 25 30 35+ Temperature / ° C

Clouds and Precipitation
Forecast for 2017-12-11 18:00 UTC. Updated 2 hours ago

Ground ~20,000 ft ~40,000 ft Winds

METAR

EGXZ 111850Z AUTO 34005KT 9999 FEW012/// SCT016/// M01/M03 Q0994

TAF

Not found

Frequencies

Tower 122.10 MHz Topcliffe Tower
Approach 125.00 MHz Topcliffe Approach
Warning: Do not use this data for real-world aviation or navigation. No guarantee of current accuracy is given.